sensor_id;sensor_type;location;lat;lon;timestamp;temperature;humidity
41324;DHT22;27073;51.128;4.220;2022-11-24T00:01:56;9.30;99.90
41324;DHT22;27073;51.128;4.220;2022-11-24T00:04:22;9.20;99.90
41324;DHT22;27073;51.128;4.220;2022-11-24T00:06:48;9.30;99.90
41324;DHT22;27073;51.128;4.220;2022-11-24T00:09:14;9.30;99.90
41324;DHT22;27073;51.128;4.220;2022-11-24T00:11:39;9.30;99.90
41324;DHT22;27073;51.128;4.220;2022-11-24T00:14:05;9.30;99.90
41324;DHT22;27073;51.128;4.220;2022-11-24T00:16:34;9.20;99.90
41324;DHT22;27073;51.128;4.220;2022-11-24T00:19:01;9.20;99.90
41324;DHT22;27073;51.128;4.220;2022-11-24T00:21:29;9.30;99.90
41324;DHT22;27073;51.128;4.220;2022-11-24T00:23:56;9.30;99.90
41324;DHT22;27073;51.128;4.220;2022-11-24T00:26:32;9.20;99.90
41324;DHT22;27073;51.128;4.220;2022-11-24T00:29:01;9.30;99.90
41324;DHT22;27073;51.128;4.220;2022-11-24T00:31:29;9.20;99.90
41324;DHT22;27073;51.128;4.220;2022-11-24T00:33:57;9.30;99.90
41324;DHT22;27073;51.128;4.220;2022-11-24T00:36:25;9.30;99.90
41324;DHT22;27073;51.128;4.220;2022-11-24T00:39:02;9.30;99.90
41324;DHT22;27073;51.128;4.220;2022-11-24T00:41:29;9.30;99.90
41324;DHT22;27073;51.128;4.220;2022-11-24T00:43:55;9.40;99.90
41324;DHT22;27073;51.128;4.220;2022-11-24T00:46:22;9.40;99.90
41324;DHT22;27073;51.128;4.220;2022-11-24T00:48:48;9.40;99.90
41324;DHT22;27073;51.128;4.220;2022-11-24T00:51:16;9.40;99.90
41324;DHT22;27073;51.128;4.220;2022-11-24T00:53:42;9.30;99.90
41324;DHT22;27073;51.128;4.220;2022-11-24T00:56:09;9.30;99.90
41324;DHT22;27073;51.128;4.220;2022-11-24T00:58:36;9.30;99.90
41324;DHT22;27073;51.128;4.220;2022-11-24T01:01:05;9.30;99.90
41324;DHT22;27073;51.128;4.220;2022-11-24T01:03:31;9.40;99.90
41324;DHT22;27073;51.128;4.220;2022-11-24T01:06:15;9.40;99.90
41324;DHT22;27073;51.128;4.220;2022-11-24T01:08:41;9.40;99.90
41324;DHT22;27073;51.128;4.220;2022-11-24T01:11:19;9.50;99.90
41324;DHT22;27073;51.128;4.220;2022-11-24T01:13:46;9.50;99.90
41324;DHT22;27073;51.128;4.220;2022-11-24T01:16:28;9.60;99.90
41324;DHT22;27073;51.128;4.220;2022-11-24T01:18:54;9.60;99.90
41324;DHT22;27073;51.128;4.220;2022-11-24T01:21:20;9.60;99.90
41324;DHT22;27073;51.128;4.220;2022-11-24T01:23:46;9.60;99.90
41324;DHT22;27073;51.128;4.220;2022-11-24T01:26:14;9.60;99.90
41324;DHT22;27073;51.128;4.220;2022-11-24T01:28:41;9.60;99.90
41324;DHT22;27073;51.128;4.220;2022-11-24T01:31:07;9.60;99.90
41324;DHT22;27073;51.128;4.220;2022-11-24T01:33:34;9.60;99.90
41324;DHT22;27073;51.128;4.220;2022-11-24T01:36:01;9.50;99.90
41324;DHT22;27073;51.128;4.220;2022-11-24T01:38:27;9.50;99.90
41324;DHT22;27073;51.128;4.220;2022-11-24T01:41:07;9.50;99.90
41324;DHT22;27073;51.128;4.220;2022-11-24T01:43:34;9.50;99.90
41324;DHT22;27073;51.128;4.220;2022-11-24T01:49:00;9.50;99.90
41324;DHT22;27073;51.128;4.220;2022-11-24T01:51:29;9.60;99.90
41324;DHT22;27073;51.128;4.220;2022-11-24T01:54:01;9.60;99.90
41324;DHT22;27073;51.128;4.220;2022-11-24T01:56:29;9.70;99.90
41324;DHT22;27073;51.128;4.220;2022-11-24T01:58:58;9.60;99.90
41324;DHT22;27073;51.128;4.220;2022-11-24T02:01:25;9.70;99.90
41324;DHT22;27073;51.128;4.220;2022-11-24T02:03:51;9.70;99.90
41324;DHT22;27073;51.128;4.220;2022-11-24T02:06:21;9.70;99.90
41324;DHT22;27073;51.128;4.220;2022-11-24T02:09:02;9.80;99.90
41324;DHT22;27073;51.128;4.220;2022-11-24T02:11:35;9.70;99.90
41324;DHT22;27073;51.128;4.220;2022-11-24T02:14:03;9.60;99.90
41324;DHT22;27073;51.128;4.220;2022-11-24T02:16:33;9.60;99.90
41324;DHT22;27073;51.128;4.220;2022-11-24T02:18:59;9.50;99.90
41324;DHT22;27073;51.128;4.220;2022-11-24T02:21:25;9.60;99.90
41324;DHT22;27073;51.128;4.220;2022-11-24T02:24:05;9.50;99.90
41324;DHT22;27073;51.128;4.220;2022-11-24T02:26:46;9.50;99.90
41324;DHT22;27073;51.128;4.220;2022-11-24T02:29:13;9.40;99.90
41324;DHT22;27073;51.128;4.220;2022-11-24T02:32:00;9.40;99.90
41324;DHT22;27073;51.128;4.220;2022-11-24T02:34:27;9.30;99.90
41324;DHT22;27073;51.128;4.220;2022-11-24T02:36:53;9.30;99.90
41324;DHT22;27073;51.128;4.220;2022-11-24T02:39:19;9.30;99.90
41324;DHT22;27073;51.128;4.220;2022-11-24T02:41:52;9.20;99.90
41324;DHT22;27073;51.128;4.220;2022-11-24T02:44:21;9.10;99.90
41324;DHT22;27073;51.128;4.220;2022-11-24T02:46:49;9.10;99.90
41324;DHT22;27073;51.128;4.220;2022-11-24T02:49:25;9.00;99.90
41324;DHT22;27073;51.128;4.220;2022-11-24T02:51:51;8.90;99.90
41324;DHT22;27073;51.128;4.220;2022-11-24T02:54:16;8.90;99.90
41324;DHT22;27073;51.128;4.220;2022-11-24T02:56:42;8.80;99.90
41324;DHT22;27073;51.128;4.220;2022-11-24T02:59:08;8.80;99.90
41324;DHT22;27073;51.128;4.220;2022-11-24T03:01:33;8.70;99.90
41324;DHT22;27073;51.128;4.220;2022-11-24T03:03:59;8.70;99.90
41324;DHT22;27073;51.128;4.220;2022-11-24T03:06:25;8.70;99.90
41324;DHT22;27073;51.128;4.220;2022-11-24T03:08:50;8.70;99.90
41324;DHT22;27073;51.128;4.220;2022-11-24T03:11:16;8.70;99.90
41324;DHT22;27073;51.128;4.220;2022-11-24T03:13:42;8.70;99.90
41324;DHT22;27073;51.128;4.220;2022-11-24T03:16:08;8.60;99.90
41324;DHT22;27073;51.128;4.220;2022-11-24T03:18:34;8.70;99.90
41324;DHT22;27073;51.128;4.220;2022-11-24T03:21:00;8.70;99.90
41324;DHT22;27073;51.128;4.220;2022-11-24T03:23:25;8.50;99.90
41324;DHT22;27073;51.128;4.220;2022-11-24T03:25:51;8.50;99.90
41324;DHT22;27073;51.128;4.220;2022-11-24T03:28:17;8.50;99.90
41324;DHT22;27073;51.128;4.220;2022-11-24T03:30:42;8.50;99.90
41324;DHT22;27073;51.128;4.220;2022-11-24T03:33:08;8.60;99.90
41324;DHT22;27073;51.128;4.220;2022-11-24T03:35:34;8.60;99.90
41324;DHT22;27073;51.128;4.220;2022-11-24T03:37:59;8.60;99.90
41324;DHT22;27073;51.128;4.220;2022-11-24T03:40:25;8.70;99.90
41324;DHT22;27073;51.128;4.220;2022-11-24T03:42:51;8.80;99.90
41324;DHT22;27073;51.128;4.220;2022-11-24T03:45:17;8.70;99.90
41324;DHT22;27073;51.128;4.220;2022-11-24T03:47:43;8.70;99.90
41324;DHT22;27073;51.128;4.220;2022-11-24T03:50:09;8.70;99.90
41324;DHT22;27073;51.128;4.220;2022-11-24T03:52:35;8.70;99.90
41324;DHT22;27073;51.128;4.220;2022-11-24T03:55:00;8.60;99.90
41324;DHT22;27073;51.128;4.220;2022-11-24T03:57:26;8.60;99.90
41324;DHT22;27073;51.128;4.220;2022-11-24T03:59:52;8.50;99.90
41324;DHT22;27073;51.128;4.220;2022-11-24T04:02:17;8.50;99.90
41324;DHT22;27073;51.128;4.220;2022-11-24T04:04:43;8.50;99.90
41324;DHT22;27073;51.128;4.220;2022-11-24T04:07:11;8.40;99.90
41324;DHT22;27073;51.128;4.220;2022-11-24T04:09:37;8.50;99.90
41324;DHT22;27073;51.128;4.220;2022-11-24T04:12:03;8.50;99.90
41324;DHT22;27073;51.128;4.220;2022-11-24T04:14:47;8.50;99.90
41324;DHT22;27073;51.128;4.220;2022-11-24T04:17:13;8.50;99.90
41324;DHT22;27073;51.128;4.220;2022-11-24T04:19:39;8.60;99.90
41324;DHT22;27073;51.128;4.220;2022-11-24T04:22:04;8.60;99.90
41324;DHT22;27073;51.128;4.220;2022-11-24T04:24:30;8.60;99.90
41324;DHT22;27073;51.128;4.220;2022-11-24T04:26:55;8.60;99.90
41324;DHT22;27073;51.128;4.220;2022-11-24T04:29:21;8.50;99.90
41324;DHT22;27073;51.128;4.220;2022-11-24T04:31:47;8.50;99.90
41324;DHT22;27073;51.128;4.220;2022-11-24T04:34:13;8.50;99.90
41324;DHT22;27073;51.128;4.220;2022-11-24T04:36:38;8.50;99.90
41324;DHT22;27073;51.128;4.220;2022-11-24T04:39:05;8.50;99.90
41324;DHT22;27073;51.128;4.220;2022-11-24T04:41:31;8.50;99.90
41324;DHT22;27073;51.128;4.220;2022-11-24T04:43:56;8.50;99.90
41324;DHT22;27073;51.128;4.220;2022-11-24T04:46:22;8.50;99.90
41324;DHT22;27073;51.128;4.220;2022-11-24T04:48:48;8.60;99.90
41324;DHT22;27073;51.128;4.220;2022-11-24T04:51:14;8.60;99.90
41324;DHT22;27073;51.128;4.220;2022-11-24T04:53:40;8.60;99.90
41324;DHT22;27073;51.128;4.220;2022-11-24T04:56:06;8.60;99.90
41324;DHT22;27073;51.128;4.220;2022-11-24T04:58:32;8.60;99.90
41324;DHT22;27073;51.128;4.220;2022-11-24T05:00:57;8.70;99.90
41324;DHT22;27073;51.128;4.220;2022-11-24T05:03:23;8.60;99.90
41324;DHT22;27073;51.128;4.220;2022-11-24T05:05:49;8.50;99.90
41324;DHT22;27073;51.128;4.220;2022-11-24T05:08:14;8.50;99.90
41324;DHT22;27073;51.128;4.220;2022-11-24T05:10:40;8.50;99.90
41324;DHT22;27073;51.128;4.220;2022-11-24T05:13:12;8.50;99.90
41324;DHT22;27073;51.128;4.220;2022-11-24T05:15:39;8.50;99.90
41324;DHT22;27073;51.128;4.220;2022-11-24T05:18:11;8.50;99.90
41324;DHT22;27073;51.128;4.220;2022-11-24T05:20:37;8.50;99.90
41324;DHT22;27073;51.128;4.220;2022-11-24T05:23:05;8.50;99.90
41324;DHT22;27073;51.128;4.220;2022-11-24T05:25:32;8.50;99.90
41324;DHT22;27073;51.128;4.220;2022-11-24T05:28:00;8.40;99.90
41324;DHT22;27073;51.128;4.220;2022-11-24T05:30:26;8.50;99.90
41324;DHT22;27073;51.128;4.220;2022-11-24T05:32:52;8.50;99.90
41324;DHT22;27073;51.128;4.220;2022-11-24T05:35:18;8.50;99.90
41324;DHT22;27073;51.128;4.220;2022-11-24T05:37:44;8.50;99.90
41324;DHT22;27073;51.128;4.220;2022-11-24T05:40:10;8.50;99.90
41324;DHT22;27073;51.128;4.220;2022-11-24T05:42:35;8.40;99.90
41324;DHT22;27073;51.128;4.220;2022-11-24T05:45:13;8.40;99.90
41324;DHT22;27073;51.128;4.220;2022-11-24T05:47:40;8.40;99.90
41324;DHT22;27073;51.128;4.220;2022-11-24T05:50:07;8.40;99.90
41324;DHT22;27073;51.128;4.220;2022-11-24T05:52:34;8.30;99.90
41324;DHT22;27073;51.128;4.220;2022-11-24T05:55:00;8.30;99.90
41324;DHT22;27073;51.128;4.220;2022-11-24T05:57:25;8.40;99.90
41324;DHT22;27073;51.128;4.220;2022-11-24T05:59:51;8.30;99.90
41324;DHT22;27073;51.128;4.220;2022-11-24T06:02:17;8.20;99.90
41324;DHT22;27073;51.128;4.220;2022-11-24T06:04:43;8.20;99.90
41324;DHT22;27073;51.128;4.220;2022-11-24T06:07:10;8.20;99.90
41324;DHT22;27073;51.128;4.220;2022-11-24T06:09:40;8.30;99.90
41324;DHT22;27073;51.128;4.220;2022-11-24T06:12:07;8.30;99.90
41324;DHT22;27073;51.128;4.220;2022-11-24T06:14:33;8.30;99.90
41324;DHT22;27073;51.128;4.220;2022-11-24T06:16:59;8.30;99.90
41324;DHT22;27073;51.128;4.220;2022-11-24T06:19:25;8.20;99.90
41324;DHT22;27073;51.128;4.220;2022-11-24T06:21:50;8.20;99.90
41324;DHT22;27073;51.128;4.220;2022-11-24T06:24:16;8.20;99.90
41324;DHT22;27073;51.128;4.220;2022-11-24T06:26:42;8.20;99.90
41324;DHT22;27073;51.128;4.220;2022-11-24T06:29:07;8.20;99.90
41324;DHT22;27073;51.128;4.220;2022-11-24T06:31:33;8.20;99.90
41324;DHT22;27073;51.128;4.220;2022-11-24T06:33:59;8.20;99.90
41324;DHT22;27073;51.128;4.220;2022-11-24T06:36:25;8.20;99.90
41324;DHT22;27073;51.128;4.220;2022-11-24T06:38:52;8.20;99.90
41324;DHT22;27073;51.128;4.220;2022-11-24T06:41:17;8.20;99.90
41324;DHT22;27073;51.128;4.220;2022-11-24T06:43:44;8.20;99.90
41324;DHT22;27073;51.128;4.220;2022-11-24T06:46:11;8.10;99.90
41324;DHT22;27073;51.128;4.220;2022-11-24T06:48:37;8.10;99.90
41324;DHT22;27073;51.128;4.220;2022-11-24T06:51:05;8.00;99.90
41324;DHT22;27073;51.128;4.220;2022-11-24T06:53:32;8.10;99.90
41324;DHT22;27073;51.128;4.220;2022-11-24T06:56:02;8.10;99.90
41324;DHT22;27073;51.128;4.220;2022-11-24T06:58:28;8.10;99.90
41324;DHT22;27073;51.128;4.220;2022-11-24T07:00:54;8.10;99.90
41324;DHT22;27073;51.128;4.220;2022-11-24T07:03:20;8.10;99.90
41324;DHT22;27073;51.128;4.220;2022-11-24T07:05:46;8.00;99.90
41324;DHT22;27073;51.128;4.220;2022-11-24T07:08:12;8.00;99.90
41324;DHT22;27073;51.128;4.220;2022-11-24T07:10:38;8.10;99.90
41324;DHT22;27073;51.128;4.220;2022-11-24T07:13:07;8.00;99.90
41324;DHT22;27073;51.128;4.220;2022-11-24T07:15:33;8.00;99.90
41324;DHT22;27073;51.128;4.220;2022-11-24T07:17:58;8.00;99.90
41324;DHT22;27073;51.128;4.220;2022-11-24T07:20:25;8.00;99.90
41324;DHT22;27073;51.128;4.220;2022-11-24T07:22:54;8.10;99.90
41324;DHT22;27073;51.128;4.220;2022-11-24T07:25:20;8.10;99.90
41324;DHT22;27073;51.128;4.220;2022-11-24T07:27:46;8.10;99.90
41324;DHT22;27073;51.128;4.220;2022-11-24T07:30:12;8.10;99.90
41324;DHT22;27073;51.128;4.220;2022-11-24T07:32:38;8.00;99.90
41324;DHT22;27073;51.128;4.220;2022-11-24T07:35:04;8.00;99.90
41324;DHT22;27073;51.128;4.220;2022-11-24T07:37:30;8.10;99.90
41324;DHT22;27073;51.128;4.220;2022-11-24T07:39:55;8.10;99.90
41324;DHT22;27073;51.128;4.220;2022-11-24T07:42:21;8.10;99.90
41324;DHT22;27073;51.128;4.220;2022-11-24T07:44:47;8.10;99.90
41324;DHT22;27073;51.128;4.220;2022-11-24T07:47:12;8.00;99.90
41324;DHT22;27073;51.128;4.220;2022-11-24T07:49:38;8.10;99.90
41324;DHT22;27073;51.128;4.220;2022-11-24T07:52:04;8.10;99.90
41324;DHT22;27073;51.128;4.220;2022-11-24T07:54:32;8.00;99.90
41324;DHT22;27073;51.128;4.220;2022-11-24T07:56:57;8.00;99.90
41324;DHT22;27073;51.128;4.220;2022-11-24T07:59:23;7.90;99.90
41324;DHT22;27073;51.128;4.220;2022-11-24T08:01:49;8.00;99.90
41324;DHT22;27073;51.128;4.220;2022-11-24T08:04:14;8.00;99.90
41324;DHT22;27073;51.128;4.220;2022-11-24T08:06:40;8.00;99.90
41324;DHT22;27073;51.128;4.220;2022-11-24T08:09:06;8.00;99.90
41324;DHT22;27073;51.128;4.220;2022-11-24T08:11:31;8.00;99.90
41324;DHT22;27073;51.128;4.220;2022-11-24T08:13:57;8.10;99.90
41324;DHT22;27073;51.128;4.220;2022-11-24T08:16:23;8.00;99.90
41324;DHT22;27073;51.128;4.220;2022-11-24T08:18:50;8.00;99.90
41324;DHT22;27073;51.128;4.220;2022-11-24T08:21:16;8.00;99.90
41324;DHT22;27073;51.128;4.220;2022-11-24T08:23:42;8.00;99.90
41324;DHT22;27073;51.128;4.220;2022-11-24T08:26:11;8.00;99.90
41324;DHT22;27073;51.128;4.220;2022-11-24T08:28:38;8.10;99.90
41324;DHT22;27073;51.128;4.220;2022-11-24T08:31:06;8.10;99.90
41324;DHT22;27073;51.128;4.220;2022-11-24T08:33:32;8.10;99.90
41324;DHT22;27073;51.128;4.220;2022-11-24T08:36:10;8.20;99.90
41324;DHT22;27073;51.128;4.220;2022-11-24T08:38:37;8.10;99.90
41324;DHT22;27073;51.128;4.220;2022-11-24T08:41:08;8.10;99.90
41324;DHT22;27073;51.128;4.220;2022-11-24T08:43:35;8.20;99.90
41324;DHT22;27073;51.128;4.220;2022-11-24T08:46:06;8.30;99.90
41324;DHT22;27073;51.128;4.220;2022-11-24T08:48:33;8.20;99.90
41324;DHT22;27073;51.128;4.220;2022-11-24T08:51:09;8.30;99.90
41324;DHT22;27073;51.128;4.220;2022-11-24T08:53:35;8.20;99.90
41324;DHT22;27073;51.128;4.220;2022-11-24T08:56:01;8.20;99.90
41324;DHT22;27073;51.128;4.220;2022-11-24T08:58:28;8.30;99.90
41324;DHT22;27073;51.128;4.220;2022-11-24T09:00:54;8.30;99.90
41324;DHT22;27073;51.128;4.220;2022-11-24T09:03:19;8.40;99.90
41324;DHT22;27073;51.128;4.220;2022-11-24T09:05:45;8.40;99.90
41324;DHT22;27073;51.128;4.220;2022-11-24T09:08:11;8.50;99.90
41324;DHT22;27073;51.128;4.220;2022-11-24T09:10:37;8.50;99.90
41324;DHT22;27073;51.128;4.220;2022-11-24T09:13:02;8.60;99.90
41324;DHT22;27073;51.128;4.220;2022-11-24T09:15:28;8.50;99.90
41324;DHT22;27073;51.128;4.220;2022-11-24T09:17:54;8.60;99.90
41324;DHT22;27073;51.128;4.220;2022-11-24T09:20:19;8.60;99.90
41324;DHT22;27073;51.128;4.220;2022-11-24T09:22:46;8.70;99.90
41324;DHT22;27073;51.128;4.220;2022-11-24T09:25:12;8.70;99.90
41324;DHT22;27073;51.128;4.220;2022-11-24T09:27:39;8.70;99.90
41324;DHT22;27073;51.128;4.220;2022-11-24T09:30:05;8.80;99.90
41324;DHT22;27073;51.128;4.220;2022-11-24T09:32:31;8.80;99.90
41324;DHT22;27073;51.128;4.220;2022-11-24T09:34:57;8.90;99.90
41324;DHT22;27073;51.128;4.220;2022-11-24T09:37:23;8.90;99.90
41324;DHT22;27073;51.128;4.220;2022-11-24T09:39:48;8.90;99.90
41324;DHT22;27073;51.128;4.220;2022-11-24T09:42:39;8.90;99.90
41324;DHT22;27073;51.128;4.220;2022-11-24T09:45:12;8.90;99.90
41324;DHT22;27073;51.128;4.220;2022-11-24T09:47:58;8.90;99.90
41324;DHT22;27073;51.128;4.220;2022-11-24T09:50:31;8.90;99.90
41324;DHT22;27073;51.128;4.220;2022-11-24T09:53:11;9.00;99.90
41324;DHT22;27073;51.128;4.220;2022-11-24T09:55:46;8.90;99.90
41324;DHT22;27073;51.128;4.220;2022-11-24T10:01:28;9.10;99.90
41324;DHT22;27073;51.128;4.220;2022-11-24T10:03:55;9.10;99.90
41324;DHT22;27073;51.128;4.220;2022-11-24T10:06:30;9.20;99.90
41324;DHT22;27073;51.128;4.220;2022-11-24T10:14:31;9.30;99.90
41324;DHT22;27073;51.128;4.220;2022-11-24T10:25:17;9.60;99.90
41324;DHT22;27073;51.128;4.220;2022-11-24T10:27:48;9.70;99.90
41324;DHT22;27073;51.128;4.220;2022-11-24T10:30:15;9.70;99.90
41324;DHT22;27073;51.128;4.220;2022-11-24T10:32:48;9.70;99.90
41324;DHT22;27073;51.128;4.220;2022-11-24T10:35:26;9.80;99.90
41324;DHT22;27073;51.128;4.220;2022-11-24T10:38:15;9.90;99.90
41324;DHT22;27073;51.128;4.220;2022-11-24T10:40:44;9.90;99.90
41324;DHT22;27073;51.128;4.220;2022-11-24T10:43:11;9.90;99.90
41324;DHT22;27073;51.128;4.220;2022-11-24T10:45:37;9.90;99.90
41324;DHT22;27073;51.128;4.220;2022-11-24T10:48:16;10.00;99.90
41324;DHT22;27073;51.128;4.220;2022-11-24T10:50:43;10.10;99.90
41324;DHT22;27073;51.128;4.220;2022-11-24T10:53:16;10.10;99.90
41324;DHT22;27073;51.128;4.220;2022-11-24T10:58:28;10.20;99.90
41324;DHT22;27073;51.128;4.220;2022-11-24T11:00:57;10.20;99.90
41324;DHT22;27073;51.128;4.220;2022-11-24T11:03:26;10.30;99.90
41324;DHT22;27073;51.128;4.220;2022-11-24T11:06:09;10.40;99.90
41324;DHT22;27073;51.128;4.220;2022-11-24T11:08:36;10.50;99.90
41324;DHT22;27073;51.128;4.220;2022-11-24T11:11:21;10.50;99.90
41324;DHT22;27073;51.128;4.220;2022-11-24T11:13:52;10.50;99.90
41324;DHT22;27073;51.128;4.220;2022-11-24T11:19:37;10.60;99.90
41324;DHT22;27073;51.128;4.220;2022-11-24T11:22:23;10.60;99.90
41324;DHT22;27073;51.128;4.220;2022-11-24T11:27:34;10.80;99.90
41324;DHT22;27073;51.128;4.220;2022-11-24T11:32:56;11.00;99.90
41324;DHT22;27073;51.128;4.220;2022-11-24T11:35:23;11.00;99.90
41324;DHT22;27073;51.128;4.220;2022-11-24T11:37:53;11.00;99.90
41324;DHT22;27073;51.128;4.220;2022-11-24T11:40:25;11.00;99.90
41324;DHT22;27073;51.128;4.220;2022-11-24T11:43:10;11.00;99.90
41324;DHT22;27073;51.128;4.220;2022-11-24T11:45:43;11.20;99.90
41324;DHT22;27073;51.128;4.220;2022-11-24T11:48:32;11.30;99.90
41324;DHT22;27073;51.128;4.220;2022-11-24T11:56:47;11.40;99.90
41324;DHT22;27073;51.128;4.220;2022-11-24T12:05:50;11.60;99.90
41324;DHT22;27073;51.128;4.220;2022-11-24T12:08:53;11.80;99.90
41324;DHT22;27073;51.128;4.220;2022-11-24T12:11:33;11.90;98.80
41324;DHT22;27073;51.128;4.220;2022-11-24T12:28:10;11.50;99.90
41324;DHT22;27073;51.128;4.220;2022-11-24T12:31:03;11.50;99.90
41324;DHT22;27073;51.128;4.220;2022-11-24T12:50:10;12.20;96.70
41324;DHT22;27073;51.128;4.220;2022-11-24T12:52:43;12.30;96.70
41324;DHT22;27073;51.128;4.220;2022-11-24T12:55:19;12.30;96.40
41324;DHT22;27073;51.128;4.220;2022-11-24T13:00:56;12.50;95.20
41324;DHT22;27073;51.128;4.220;2022-11-24T13:06:37;12.70;95.40
41324;DHT22;27073;51.128;4.220;2022-11-24T13:09:09;12.60;94.70
41324;DHT22;27073;51.128;4.220;2022-11-24T13:11:47;12.60;94.50
41324;DHT22;27073;51.128;4.220;2022-11-24T13:14:28;12.60;94.30
41324;DHT22;27073;51.128;4.220;2022-11-24T13:17:03;12.80;94.30
41324;DHT22;27073;51.128;4.220;2022-11-24T13:19:47;12.60;93.50
41324;DHT22;27073;51.128;4.220;2022-11-24T13:22:24;12.50;94.90
41324;DHT22;27073;51.128;4.220;2022-11-24T13:25:23;12.60;95.10
41324;DHT22;27073;51.128;4.220;2022-11-24T13:27:54;12.80;94.30
41324;DHT22;27073;51.128;4.220;2022-11-24T13:33:26;12.80;93.00
41324;DHT22;27073;51.128;4.220;2022-11-24T13:47:01;12.80;92.90
41324;DHT22;27073;51.128;4.220;2022-11-24T14:02:56;12.10;96.10
41324;DHT22;27073;51.128;4.220;2022-11-24T14:05:22;12.00;96.90
41324;DHT22;27073;51.128;4.220;2022-11-24T14:07:51;12.00;97.30
41324;DHT22;27073;51.128;4.220;2022-11-24T14:10:41;12.10;97.20
41324;DHT22;27073;51.128;4.220;2022-11-24T14:13:27;12.20;97.20
41324;DHT22;27073;51.128;4.220;2022-11-24T14:18:28;12.00;95.80
41324;DHT22;27073;51.128;4.220;2022-11-24T14:20:58;12.00;96.40
41324;DHT22;27073;51.128;4.220;2022-11-24T14:23:24;12.00;96.60
41324;DHT22;27073;51.128;4.220;2022-11-24T14:25:51;12.00;96.50
41324;DHT22;27073;51.128;4.220;2022-11-24T14:28:22;12.10;96.50
41324;DHT22;27073;51.128;4.220;2022-11-24T14:30:49;12.30;96.60
41324;DHT22;27073;51.128;4.220;2022-11-24T14:33:18;12.20;95.80
41324;DHT22;27073;51.128;4.220;2022-11-24T14:35:49;12.20;96.60
41324;DHT22;27073;51.128;4.220;2022-11-24T14:38:15;12.20;96.80
41324;DHT22;27073;51.128;4.220;2022-11-24T14:40:47;12.10;97.40
41324;DHT22;27073;51.128;4.220;2022-11-24T14:43:27;12.00;97.30
41324;DHT22;27073;51.128;4.220;2022-11-24T14:46:10;12.00;98.10
41324;DHT22;27073;51.128;4.220;2022-11-24T14:48:47;12.00;98.60
41324;DHT22;27073;51.128;4.220;2022-11-24T14:53:44;11.70;99.60
41324;DHT22;27073;51.128;4.220;2022-11-24T14:56:33;11.60;99.90
41324;DHT22;27073;51.128;4.220;2022-11-24T14:58:59;11.60;99.90
41324;DHT22;27073;51.128;4.220;2022-11-24T15:01:34;11.40;99.90
41324;DHT22;27073;51.128;4.220;2022-11-24T15:04:17;11.40;99.90
41324;DHT22;27073;51.128;4.220;2022-11-24T15:06:48;11.30;99.90
41324;DHT22;27073;51.128;4.220;2022-11-24T15:11:45;11.20;99.90
41324;DHT22;27073;51.128;4.220;2022-11-24T15:14:33;11.20;99.90
41324;DHT22;27073;51.128;4.220;2022-11-24T15:17:00;11.20;99.90
41324;DHT22;27073;51.128;4.220;2022-11-24T15:19:31;11.20;99.90
41324;DHT22;27073;51.128;4.220;2022-11-24T15:21:57;11.30;99.90
41324;DHT22;27073;51.128;4.220;2022-11-24T15:24:22;11.30;99.90
41324;DHT22;27073;51.128;4.220;2022-11-24T15:26:48;11.40;99.90
41324;DHT22;27073;51.128;4.220;2022-11-24T15:29:14;11.30;99.90
41324;DHT22;27073;51.128;4.220;2022-11-24T15:31:41;11.30;99.90
41324;DHT22;27073;51.128;4.220;2022-11-24T15:34:10;11.30;99.90
41324;DHT22;27073;51.128;4.220;2022-11-24T15:36:37;11.30;99.90
41324;DHT22;27073;51.128;4.220;2022-11-24T15:39:03;11.10;99.90
41324;DHT22;27073;51.128;4.220;2022-11-24T15:41:31;11.10;99.90
41324;DHT22;27073;51.128;4.220;2022-11-24T15:43:57;11.00;99.90
41324;DHT22;27073;51.128;4.220;2022-11-24T15:46:30;11.00;99.90
41324;DHT22;27073;51.128;4.220;2022-11-24T15:49:03;10.90;99.90
41324;DHT22;27073;51.128;4.220;2022-11-24T15:51:29;11.00;99.90
41324;DHT22;27073;51.128;4.220;2022-11-24T15:53:56;11.00;99.90
41324;DHT22;27073;51.128;4.220;2022-11-24T15:56:33;11.00;99.90
41324;DHT22;27073;51.128;4.220;2022-11-24T15:59:00;11.00;99.90
41324;DHT22;27073;51.128;4.220;2022-11-24T16:01:30;11.00;99.90
41324;DHT22;27073;51.128;4.220;2022-11-24T16:03:56;11.00;99.90
41324;DHT22;27073;51.128;4.220;2022-11-24T16:06:21;10.90;99.90
41324;DHT22;27073;51.128;4.220;2022-11-24T16:08:47;10.80;99.90
41324;DHT22;27073;51.128;4.220;2022-11-24T16:11:13;10.70;99.90
41324;DHT22;27073;51.128;4.220;2022-11-24T16:13:39;10.60;99.90
41324;DHT22;27073;51.128;4.220;2022-11-24T16:16:05;10.60;99.90
41324;DHT22;27073;51.128;4.220;2022-11-24T16:18:30;10.70;99.90
41324;DHT22;27073;51.128;4.220;2022-11-24T16:20:57;10.70;99.90
41324;DHT22;27073;51.128;4.220;2022-11-24T16:23:23;10.70;99.90
41324;DHT22;27073;51.128;4.220;2022-11-24T16:25:48;10.80;99.90
41324;DHT22;27073;51.128;4.220;2022-11-24T16:28:14;10.80;99.90
41324;DHT22;27073;51.128;4.220;2022-11-24T16:30:40;10.80;99.90
41324;DHT22;27073;51.128;4.220;2022-11-24T16:33:05;10.70;99.90
41324;DHT22;27073;51.128;4.220;2022-11-24T16:35:32;10.80;99.90
41324;DHT22;27073;51.128;4.220;2022-11-24T16:37:58;10.70;99.90
41324;DHT22;27073;51.128;4.220;2022-11-24T16:40:24;10.80;99.90
41324;DHT22;27073;51.128;4.220;2022-11-24T16:42:50;10.70;99.90
41324;DHT22;27073;51.128;4.220;2022-11-24T16:45:16;10.80;99.90
41324;DHT22;27073;51.128;4.220;2022-11-24T16:47:42;10.80;99.90
41324;DHT22;27073;51.128;4.220;2022-11-24T16:50:09;10.80;99.90
41324;DHT22;27073;51.128;4.220;2022-11-24T16:52:35;10.80;99.90
41324;DHT22;27073;51.128;4.220;2022-11-24T16:55:01;10.50;99.90
41324;DHT22;27073;51.128;4.220;2022-11-24T16:57:27;10.40;99.90
41324;DHT22;27073;51.128;4.220;2022-11-24T16:59:52;10.50;99.90
41324;DHT22;27073;51.128;4.220;2022-11-24T17:02:18;10.40;99.90
41324;DHT22;27073;51.128;4.220;2022-11-24T17:04:44;10.50;99.90
41324;DHT22;27073;51.128;4.220;2022-11-24T17:07:10;10.50;99.90
41324;DHT22;27073;51.128;4.220;2022-11-24T17:09:35;10.50;99.90
41324;DHT22;27073;51.128;4.220;2022-11-24T17:12:01;10.50;99.90
41324;DHT22;27073;51.128;4.220;2022-11-24T17:14:27;10.50;99.90
41324;DHT22;27073;51.128;4.220;2022-11-24T17:16:53;10.40;99.90
41324;DHT22;27073;51.128;4.220;2022-11-24T17:19:18;10.30;99.90
41324;DHT22;27073;51.128;4.220;2022-11-24T17:21:44;10.30;99.90
41324;DHT22;27073;51.128;4.220;2022-11-24T17:24:10;10.30;99.90
41324;DHT22;27073;51.128;4.220;2022-11-24T17:26:42;10.30;99.90
41324;DHT22;27073;51.128;4.220;2022-11-24T17:29:08;10.30;99.90
41324;DHT22;27073;51.128;4.220;2022-11-24T17:31:34;10.20;99.90
41324;DHT22;27073;51.128;4.220;2022-11-24T17:34:02;10.20;99.90
41324;DHT22;27073;51.128;4.220;2022-11-24T17:36:29;10.20;99.90
41324;DHT22;27073;51.128;4.220;2022-11-24T17:38:57;10.20;99.90
41324;DHT22;27073;51.128;4.220;2022-11-24T17:41:22;10.10;99.90
41324;DHT22;27073;51.128;4.220;2022-11-24T17:43:49;10.00;99.90
41324;DHT22;27073;51.128;4.220;2022-11-24T17:46:15;10.00;99.90